Time;durP1;ratioP1;P1;durP2;ratioP2;P2;SDS_P1;SDS_P2;PMS_P1;PMS_P2;Temp;Humidity;BMP_temperature;BMP_pressure;BME280_temperature;BME280_humidity;BME280_pressure;Samples;Min_cycle;Max_cycle;Signal;HPM_P1;HPM_P2
2021/12/30 00:00:55;;;;;;;7.90;5.00;;;6.70;99.90;;;;;;5094652;28;20103;-67
2021/12/30 00:03:20;;;;;;;9.85;5.55;;;6.80;99.90;;;;;;5094529;28;20020;-67
2021/12/30 00:05:47;;;;;;;6.63;5.32;;;6.80;99.90;;;;;;5094516;28;20055;-68
2021/12/30 00:08:13;;;;;;;9.68;5.18;;;6.80;99.90;;;;;;5093803;28;20204;-67
2021/12/30 00:10:40;;;;;;;7.35;5.13;;;6.80;99.90;;;;;;5094127;28;20051;-66
2021/12/30 00:13:06;;;;;;;7.90;5.00;;;6.80;99.90;;;;;;5093771;28;20031;-67
2021/12/30 00:15:32;;;;;;;9.32;4.57;;;6.80;99.90;;;;;;5093970;28;20535;-67
2021/12/30 00:17:59;;;;;;;12.75;7.53;;;6.80;99.90;;;;;;5093340;28;20071;-67
2021/12/30 00:20:26;;;;;;;15.32;10.65;;;6.80;99.90;;;;;;5093936;28;20047;-66
2021/12/30 00:22:52;;;;;;;16.70;12.32;;;6.80;99.90;;;;;;5075977;28;20503;-66
2021/12/30 00:25:18;;;;;;;19.88;13.77;;;6.70;99.90;;;;;;5093532;28;20024;-67
2021/12/30 00:27:44;;;;;;;20.80;13.25;;;6.60;99.90;;;;;;5094153;28;20489;-67
2021/12/30 00:30:12;;;;;;;22.92;14.45;;;6.60;99.90;;;;;;5093694;28;20533;-67
2021/12/30 00:32:38;;;;;;;23.55;14.80;;;6.50;99.90;;;;;;5093626;28;20028;-66
2021/12/30 00:35:05;;;;;;;22.77;15.48;;;6.50;99.90;;;;;;5075371;28;20027;-67
2021/12/30 00:37:31;;;;;;;23.20;16.00;;;6.50;99.90;;;;;;5093502;28;20028;-67
2021/12/30 00:39:57;;;;;;;24.02;15.85;;;6.40;99.90;;;;;;5093200;28;20491;-68
2021/12/30 00:42:22;;;;;;;23.88;16.65;;;6.40;99.90;;;;;;5094002;28;20118;-67
2021/12/30 00:44:48;;;;;;;22.75;15.93;;;6.40;99.90;;;;;;5093756;28;20472;-68
2021/12/30 00:47:14;;;;;;;24.95;16.55;;;6.30;99.90;;;;;;5092661;28;20372;-67
2021/12/30 00:49:39;;;;;;;25.23;17.65;;;6.30;99.90;;;;;;5093654;28;20052;-68
2021/12/30 00:52:05;;;;;;;23.17;17.02;;;6.30;99.90;;;;;;5092577;28;20024;-68
2021/12/30 00:54:31;;;;;;;26.05;17.73;;;6.20;99.90;;;;;;5092765;28;20055;-68
2021/12/30 00:56:57;;;;;;;28.90;18.40;;;6.20;99.90;;;;;;5092793;28;20050;-68
2021/12/30 00:59:22;;;;;;;26.38;18.88;;;6.20;99.90;;;;;;5093486;28;20032;-66
2021/12/30 01:01:48;;;;;;;25.83;18.50;;;6.20;99.90;;;;;;5093341;28;20107;-67
2021/12/30 01:04:14;;;;;;;25.63;17.67;;;6.20;99.90;;;;;;5092732;28;20333;-67
2021/12/30 01:06:39;;;;;;;24.58;17.67;;;6.20;99.90;;;;;;5075026;28;20483;-67
2021/12/30 01:09:05;;;;;;;25.67;17.45;;;6.20;99.90;;;;;;5092364;28;20028;-67
2021/12/30 01:11:32;;;;;;;27.10;17.83;;;6.20;99.90;;;;;;5093152;28;20036;-67
2021/12/30 01:14:15;;;;;;;25.35;18.27;;;6.20;99.90;;;;;;5074918;28;20028;-67
2021/12/30 01:16:44;;;;;;;24.23;17.10;;;6.20;99.90;;;;;;5093308;28;20028;-67
2021/12/30 01:21:51;;;;;;;26.30;18.73;;;6.20;99.90;;;;;;5093144;28;20035;-67
2021/12/30 01:24:16;;;;;;;28.58;19.38;;;6.20;99.90;;;;;;5092355;28;20054;-67
2021/12/30 01:26:42;;;;;;;27.55;19.10;;;6.10;99.90;;;;;;5092937;28;20028;-66
2021/12/30 01:29:08;;;;;;;25.38;19.15;;;6.10;99.90;;;;;;5092302;28;20024;-66
2021/12/30 01:31:34;;;;;;;26.15;18.00;;;6.10;99.90;;;;;;5092834;28;20491;-66
2021/12/30 01:33:59;;;;;;;25.05;18.17;;;6.10;99.90;;;;;;5092120;28;20360;-66
2021/12/30 01:36:27;;;;;;;25.13;17.73;;;6.10;99.90;;;;;;5092500;28;20472;-67
2021/12/30 01:38:54;;;;;;;26.13;18.38;;;6.10;99.90;;;;;;5092616;28;20111;-67
2021/12/30 01:41:21;;;;;;;25.50;17.65;;;6.10;99.90;;;;;;5092108;28;20951;-67
2021/12/30 01:43:47;;;;;;;23.95;18.02;;;6.10;99.90;;;;;;5092644;28;20063;-66
2021/12/30 01:46:13;;;;;;;25.45;18.63;;;6.10;99.90;;;;;;5091632;28;20055;-67
2021/12/30 01:48:39;;;;;;;25.25;19.40;;;6.10;99.90;;;;;;5092180;28;20032;-67
2021/12/30 01:51:07;;;;;;;24.20;18.17;;;6.00;99.90;;;;;;5091748;28;20388;-67
2021/12/30 01:53:33;;;;;;;25.60;19.70;;;6.00;99.90;;;;;;5074102;28;20528;-67
2021/12/30 01:56:00;;;;;;;24.52;18.67;;;6.00;99.90;;;;;;5092573;28;20406;-67
2021/12/30 01:58:26;;;;;;;22.23;18.17;;;5.90;99.90;;;;;;5091428;28;20032;-67
2021/12/30 02:00:53;;;;;;;25.13;18.52;;;5.90;99.90;;;;;;5092236;28;20028;-67
2021/12/30 02:03:20;;;;;;;28.45;19.05;;;5.90;99.90;;;;;;5091427;28;20032;-67
2021/12/30 02:05:47;;;;;;;24.75;18.52;;;5.90;99.90;;;;;;5092293;28;20051;-67
2021/12/30 02:08:15;;;;;;;22.85;17.45;;;5.90;99.90;;;;;;5091684;28;20475;-67
2021/12/30 02:10:48;;;;;;;25.90;18.98;;;5.90;99.90;;;;;;5092253;28;20464;-66
2021/12/30 02:13:16;;;;;;;26.08;18.80;;;5.90;99.90;;;;;;5091375;28;20020;-67
2021/12/30 02:15:42;;;;;;;27.02;19.15;;;5.90;99.90;;;;;;5092122;28;20028;-66
2021/12/30 02:18:07;;;;;;;24.25;18.63;;;5.90;99.90;;;;;;5091284;28;20115;-67
2021/12/30 02:20:45;;;;;;;23.40;17.55;;;5.90;99.90;;;;;;5091741;28;20117;-67
2021/12/30 02:23:12;;;;;;;22.85;17.80;;;5.90;99.90;;;;;;5091597;28;20054;-66
2021/12/30 02:25:38;;;;;;;25.42;18.95;;;5.90;99.90;;;;;;5091867;28;20035;-67
2021/12/30 02:28:12;;;;;;;26.40;19.15;;;5.90;99.90;;;;;;5091402;28;20024;-66
2021/12/30 02:30:39;;;;;;;24.83;18.17;;;5.90;99.90;;;;;;5091645;28;20032;-67
2021/12/30 02:33:05;;;;;;;22.55;17.65;;;6.00;99.90;;;;;;5091209;28;20476;-64
2021/12/30 02:35:31;;;;;;;25.90;17.90;;;6.00;99.90;;;;;;5091891;28;20474;-67
2021/12/30 02:37:58;;;;;;;23.75;18.05;;;6.00;99.90;;;;;;5091722;28;20028;-66
2021/12/30 02:40:25;;;;;;;24.58;17.73;;;6.00;99.90;;;;;;5091196;28;20507;-67
2021/12/30 02:42:51;;;;;;;25.52;18.17;;;6.00;99.90;;;;;;5091475;28;20457;-67
2021/12/30 02:45:16;;;;;;;21.90;17.25;;;6.00;99.90;;;;;;5091046;28;20178;-67
2021/12/30 02:47:42;;;;;;;23.42;18.05;;;6.00;99.90;;;;;;5091504;28;20040;-67
2021/12/30 02:50:08;;;;;;;21.50;17.13;;;6.00;99.90;;;;;;5090814;28;20111;-67
2021/12/30 02:52:34;;;;;;;23.23;18.13;;;6.00;99.90;;;;;;5091400;28;20028;-66
2021/12/30 02:54:59;;;;;;;21.95;16.63;;;6.00;99.90;;;;;;5091707;28;20109;-66
2021/12/30 02:57:26;;;;;;;21.50;16.35;;;6.00;99.90;;;;;;5090213;28;20316;-67
2021/12/30 02:59:52;;;;;;;24.10;15.75;;;6.00;99.90;;;;;;5091715;28;20024;-66
2021/12/30 03:02:17;;;;;;;22.00;16.50;;;6.10;99.90;;;;;;5090715;28;20035;-66
2021/12/30 03:04:43;;;;;;;22.77;16.00;;;6.10;99.90;;;;;;5091518;28;20104;-67
2021/12/30 03:07:09;;;;;;;20.08;15.73;;;6.00;99.90;;;;;;5090700;28;20024;-68
2021/12/30 03:09:34;;;;;;;21.42;16.55;;;6.00;99.90;;;;;;5091500;28;20031;-66
2021/12/30 03:12:00;;;;;;;23.67;16.42;;;6.10;99.90;;;;;;5091475;28;20124;-66
2021/12/30 03:14:26;;;;;;;23.92;17.48;;;6.10;99.90;;;;;;5090622;28;20133;-67
2021/12/30 03:16:53;;;;;;;20.27;16.13;;;6.10;99.90;;;;;;5091278;28;20024;-67
2021/12/30 03:19:18;;;;;;;21.52;16.58;;;6.00;99.90;;;;;;5093416;28;20441;-67
2021/12/30 03:22:02;;;;;;;21.98;17.20;;;6.00;99.90;;;;;;5095339;28;20099;-67
2021/12/30 03:24:28;;;;;;;20.17;15.43;;;6.00;99.90;;;;;;5094693;28;20082;-67
2021/12/30 03:26:54;;;;;;;19.45;16.45;;;6.00;99.90;;;;;;5095164;28;20059;-67
2021/12/30 03:29:19;;;;;;;15.18;11.80;;;6.10;99.90;;;;;;5094195;28;20416;-67
2021/12/30 03:31:46;;;;;;;15.18;11.85;;;6.10;99.90;;;;;;5095377;28;20031;-67
2021/12/30 03:34:11;;;;;;;17.02;12.82;;;6.10;99.90;;;;;;5094437;28;20491;-67
2021/12/30 03:36:37;;;;;;;12.25;8.40;;;6.10;99.90;;;;;;5094826;28;20024;-67
2021/12/30 03:39:04;;;;;;;14.73;9.48;;;6.20;99.90;;;;;;5094955;28;20089;-67
2021/12/30 03:41:30;;;;;;;14.02;8.88;;;6.20;99.90;;;;;;5094158;28;20081;-67
2021/12/30 03:44:00;;;;;;;8.48;6.47;;;6.20;99.90;;;;;;5094386;28;20028;-67
2021/12/30 03:46:26;;;;;;;9.43;6.72;;;6.20;99.90;;;;;;5094213;28;20115;-67
2021/12/30 03:48:52;;;;;;;8.48;6.22;;;6.20;99.90;;;;;;5094581;28;20472;-66
2021/12/30 03:51:21;;;;;;;7.78;5.40;;;6.30;99.90;;;;;;5094030;28;20119;-68
2021/12/30 03:53:49;;;;;;;8.00;4.97;;;6.30;99.90;;;;;;5094395;28;20055;-67
2021/12/30 03:56:18;;;;;;;9.75;5.18;;;6.30;99.90;;;;;;5094022;28;20024;-67
2021/12/30 03:58:45;;;;;;;6.85;4.85;;;6.40;99.90;;;;;;5094461;28;20035;-67
2021/12/30 04:01:17;;;;;;;8.27;4.75;;;6.40;99.90;;;;;;5093950;28;20047;-67
2021/12/30 04:03:42;;;;;;;9.18;4.80;;;6.40;99.90;;;;;;5094553;28;20543;-67
2021/12/30 04:06:09;;;;;;;8.57;4.50;;;6.40;99.90;;;;;;5094489;28;20066;-68
2021/12/30 04:08:35;;;;;;;10.02;4.70;;;6.50;99.90;;;;;;5093789;28;20027;-68
2021/12/30 04:11:01;;;;;;;7.63;4.43;;;6.50;99.90;;;;;;5094168;28;20031;-68
2021/12/30 04:13:29;;;;;;;8.30;4.45;;;6.50;99.90;;;;;;5093588;28;20066;-67
2021/12/30 04:15:54;;;;;;;7.53;4.82;;;6.50;99.90;;;;;;5094257;28;20028;-67
2021/12/30 04:18:20;;;;;;;6.90;4.32;;;6.50;99.90;;;;;;5093247;28;20036;-66
2021/12/30 04:20:46;;;;;;;7.57;4.35;;;6.50;99.90;;;;;;5075964;28;20055;-67
2021/12/30 04:23:13;;;;;;;5.25;3.88;;;6.50;99.90;;;;;;5093632;28;20364;-66
2021/12/30 04:25:39;;;;;;;6.88;4.03;;;6.50;99.90;;;;;;5094004;28;20024;-67
2021/12/30 04:28:06;;;;;;;7.43;4.50;;;6.50;99.90;;;;;;5093914;28;20032;-67
2021/12/30 04:30:32;;;;;;;5.85;4.28;;;6.60;99.90;;;;;;5092461;28;20270;-67
2021/12/30 04:32:57;;;;;;;7.80;4.28;;;6.60;99.90;;;;;;5093612;28;20032;-67
2021/12/30 04:35:23;;;;;;;7.95;4.00;;;6.60;99.90;;;;;;5093532;28;20028;-67
2021/12/30 04:37:49;;;;;;;6.57;4.32;;;6.60;99.90;;;;;;5093851;28;20032;-67
2021/12/30 04:40:15;;;;;;;6.80;4.85;;;6.60;99.90;;;;;;5074784;28;20028;-67
2021/12/30 04:42:42;;;;;;;8.05;5.00;;;6.60;99.90;;;;;;5093536;28;20028;-67
2021/12/30 04:45:09;;;;;;;10.60;4.88;;;6.60;99.90;;;;;;5093353;28;20028;-66
2021/12/30 04:47:34;;;;;;;6.75;4.90;;;6.60;99.90;;;;;;5092649;28;20527;-66
2021/12/30 04:50:00;;;;;;;9.55;5.00;;;6.60;99.90;;;;;;5093460;28;20059;-67
2021/12/30 04:52:26;;;;;;;7.15;4.90;;;6.60;99.90;;;;;;5092899;28;20024;-66
2021/12/30 04:54:52;;;;;;;6.55;4.68;;;6.60;99.90;;;;;;5093346;28;20126;-67
2021/12/30 04:57:18;;;;;;;5.30;4.07;;;6.60;99.90;;;;;;5092784;28;20062;-67
2021/12/30 04:59:44;;;;;;;6.82;4.70;;;6.60;99.90;;;;;;5093001;28;20134;-67
2021/12/30 05:02:11;;;;;;;7.57;4.70;;;6.60;99.90;;;;;;5093301;28;20052;-67
2021/12/30 05:04:37;;;;;;;7.60;4.57;;;6.60;99.90;;;;;;5092668;28;20020;-66
2021/12/30 05:07:03;;;;;;;7.10;4.70;;;6.60;99.90;;;;;;5093094;28;20047;-66
2021/12/30 05:09:28;;;;;;;7.00;4.50;;;6.60;99.90;;;;;;5092624;28;20032;-66
2021/12/30 05:11:54;;;;;;;7.60;4.55;;;6.60;99.90;;;;;;5092978;28;20177;-67
2021/12/30 05:14:20;;;;;;;6.25;4.50;;;6.60;99.90;;;;;;5092484;28;20020;-67
2021/12/30 05:16:46;;;;;;;5.85;4.63;;;6.60;99.90;;;;;;5092669;28;20020;-68
2021/12/30 05:19:11;;;;;;;9.20;5.53;;;6.60;99.90;;;;;;5093015;28;20028;-68
2021/12/30 05:21:37;;;;;;;6.90;4.35;;;6.70;99.90;;;;;;5092102;28;20044;-67
2021/12/30 05:24:04;;;;;;;6.45;4.45;;;6.60;99.90;;;;;;5092193;28;20500;-68
2021/12/30 05:26:30;;;;;;;7.88;4.53;;;6.60;99.90;;;;;;5091700;28;20321;-68
2021/12/30 05:28:58;;;;;;;7.40;5.00;;;6.60;99.90;;;;;;5092608;28;20032;-67
2021/12/30 05:31:25;;;;;;;7.07;4.53;;;6.70;99.90;;;;;;5092210;28;20024;-67
2021/12/30 05:33:51;;;;;;;6.60;4.57;;;6.70;99.90;;;;;;5092990;28;20409;-67
2021/12/30 05:36:17;;;;;;;7.13;4.57;;;6.70;99.90;;;;;;5092597;28;20020;-67
2021/12/30 05:38:43;;;;;;;13.07;5.80;;;6.70;99.90;;;;;;5092730;28;20035;-67
2021/12/30 05:41:09;;;;;;;10.25;5.95;;;6.70;99.90;;;;;;5091920;28;20032;-67
2021/12/30 05:43:35;;;;;;;9.63;6.20;;;6.60;99.90;;;;;;5091921;28;20024;-67
2021/12/30 05:46:01;;;;;;;7.90;5.80;;;6.70;99.90;;;;;;5092266;28;20035;-67
2021/12/30 05:48:27;;;;;;;10.75;7.57;;;6.60;99.90;;;;;;5091084;28;20051;-66
2021/12/30 05:50:54;;;;;;;9.20;7.10;;;6.60;99.90;;;;;;5071651;28;20028;-67
2021/12/30 05:53:20;;;;;;;15.02;8.25;;;6.60;99.90;;;;;;5089287;28;20080;-67
2021/12/30 05:55:46;;;;;;;15.10;10.05;;;6.60;99.90;;;;;;5091352;28;20039;-67
2021/12/30 05:58:11;;;;;;;18.13;10.90;;;6.60;99.90;;;;;;5091662;28;20036;-67
2021/12/30 06:00:37;;;;;;;14.77;10.95;;;6.60;99.90;;;;;;5086741;28;20027;-67
2021/12/30 06:03:03;;;;;;;18.17;11.25;;;6.60;99.90;;;;;;5091154;28;20040;-67
2021/12/30 06:05:29;;;;;;;15.98;11.15;;;6.60;99.90;;;;;;5085248;28;20024;-67
2021/12/30 06:07:55;;;;;;;15.50;10.48;;;6.50;99.90;;;;;;5090706;28;20438;-67
2021/12/30 06:10:20;;;;;;;17.55;10.48;;;6.50;99.90;;;;;;5065634;28;20034;-67
2021/12/30 06:12:47;;;;;;;16.90;9.82;;;6.50;99.90;;;;;;5091999;28;20036;-67
2021/12/30 06:15:14;;;;;;;15.65;9.50;;;6.50;99.90;;;;;;5091510;28;20442;-67
2021/12/30 06:17:41;;;;;;;12.70;9.38;;;6.50;99.90;;;;;;5091114;28;20636;-67
2021/12/30 06:20:13;;;;;;;12.32;8.20;;;6.50;99.90;;;;;;5091417;28;20093;-67
2021/12/30 06:22:40;;;;;;;15.85;7.50;;;6.50;99.90;;;;;;5091010;28;20024;-67
2021/12/30 06:25:06;;;;;;;10.23;6.38;;;6.60;99.90;;;;;;5089225;28;20024;-67
2021/12/30 06:27:32;;;;;;;12.55;6.10;;;6.60;99.90;;;;;;5070979;28;20426;-66
2021/12/30 06:29:58;;;;;;;10.55;6.07;;;6.60;99.90;;;;;;5071581;28;20041;-67
2021/12/30 06:32:24;;;;;;;10.27;6.47;;;6.60;99.90;;;;;;5088752;28;20036;-67
2021/12/30 06:34:49;;;;;;;16.38;7.82;;;6.60;99.90;;;;;;5091987;28;20028;-67
2021/12/30 06:37:15;;;;;;;21.10;8.55;;;6.60;99.90;;;;;;5091411;28;20039;-67
2021/12/30 06:39:41;;;;;;;14.13;9.07;;;6.70;99.90;;;;;;5090789;28;20297;-67
2021/12/30 06:42:07;;;;;;;16.13;8.45;;;6.60;99.90;;;;;;5091571;28;20089;-67
2021/12/30 06:44:32;;;;;;;18.25;8.05;;;6.60;99.90;;;;;;5090886;28;20158;-66
2021/12/30 06:47:00;;;;;;;12.70;8.10;;;6.60;99.90;;;;;;5091327;28;20096;-67
2021/12/30 06:49:26;;;;;;;12.75;7.90;;;6.60;99.90;;;;;;5072730;28;20334;-67
2021/12/30 06:51:52;;;;;;;17.92;8.55;;;6.60;99.90;;;;;;5091430;28;20024;-68
2021/12/30 06:57:03;;;;;;;14.07;7.85;;;6.60;99.90;;;;;;5090375;28;20039;-65
2021/12/30 06:59:30;;;;;;;14.75;7.80;;;6.60;99.90;;;;;;5074212;28;20059;-66
2021/12/30 07:01:57;;;;;;;16.08;8.25;;;6.60;99.90;;;;;;5091045;28;20051;-66
2021/12/30 07:04:25;;;;;;;14.38;8.18;;;6.60;99.90;;;;;;5095207;28;20024;-66
2021/12/30 07:06:51;;;;;;;15.13;8.40;;;6.60;99.90;;;;;;5094894;28;20026;-66
2021/12/30 07:09:36;;;;;;;14.75;7.30;;;6.60;99.90;;;;;;5095602;28;20032;-66
2021/12/30 07:12:01;;;;;;;14.57;7.50;;;6.60;99.90;;;;;;5095287;28;20404;-67
2021/12/30 07:14:29;;;;;;;13.65;7.72;;;6.60;99.90;;;;;;5094396;28;20028;-67
2021/12/30 07:16:54;;;;;;;13.55;6.30;;;6.60;99.90;;;;;;5095384;28;20032;-66
2021/12/30 07:19:20;;;;;;;12.25;6.40;;;6.60;99.90;;;;;;5095200;28;20517;-67
2021/12/30 07:21:46;;;;;;;11.27;6.03;;;6.60;99.90;;;;;;5094664;28;20379;-68
2021/12/30 07:24:12;;;;;;;19.25;6.55;;;6.60;99.90;;;;;;5095264;28;20020;-68
2021/12/30 07:26:38;;;;;;;11.52;6.55;;;6.60;99.90;;;;;;5094511;28;20032;-67
2021/12/30 07:29:04;;;;;;;15.70;6.32;;;6.60;99.90;;;;;;5095144;28;20128;-68
2021/12/30 07:31:30;;;;;;;15.90;6.13;;;6.60;99.90;;;;;;5094465;28;20031;-67
2021/12/30 07:33:56;;;;;;;9.35;6.65;;;6.60;99.90;;;;;;5095120;28;20028;-67
2021/12/30 07:36:22;;;;;;;17.38;6.45;;;6.60;99.90;;;;;;5094714;28;20143;-68
2021/12/30 07:38:48;;;;;;;11.48;6.00;;;6.60;99.90;;;;;;5093928;28;20063;-67
2021/12/30 07:41:15;;;;;;;13.23;6.07;;;6.60;99.90;;;;;;5094348;28;20472;-67
2021/12/30 07:43:41;;;;;;;12.88;6.05;;;6.60;99.90;;;;;;5094223;28;20020;-67
2021/12/30 07:46:09;;;;;;;13.95;6.53;;;6.60;99.90;;;;;;5095212;28;20035;-67
2021/12/30 07:48:35;;;;;;;15.13;6.95;;;6.70;99.90;;;;;;5094135;28;20161;-67
2021/12/30 07:51:01;;;;;;;15.57;6.85;;;6.70;99.90;;;;;;5094633;28;20075;-67
2021/12/30 07:53:27;;;;;;;12.13;7.05;;;6.70;99.90;;;;;;5093914;28;20043;-64
2021/12/30 07:55:53;;;;;;;14.30;7.15;;;6.80;99.90;;;;;;5094919;28;20055;-67
2021/12/30 07:58:18;;;;;;;10.95;6.20;;;6.80;99.90;;;;;;5094253;28;20406;-68
2021/12/30 08:00:44;;;;;;;13.80;6.10;;;6.80;99.90;;;;;;5093851;28;20024;-67
2021/12/30 08:03:10;;;;;;;9.50;6.00;;;6.90;99.90;;;;;;5094512;28;20067;-67
2021/12/30 08:05:35;;;;;;;13.10;6.40;;;6.90;99.90;;;;;;5094000;28;20411;-67
2021/12/30 08:08:01;;;;;;;12.90;6.70;;;6.90;99.90;;;;;;5094337;28;20028;-67
2021/12/30 08:10:28;;;;;;;15.55;6.40;;;7.00;99.90;;;;;;5094402;28;20028;-67
2021/12/30 08:12:54;;;;;;;15.88;6.05;;;7.00;99.90;;;;;;5094425;28;20093;-67
2021/12/30 08:15:21;;;;;;;8.32;5.43;;;7.10;99.90;;;;;;5094091;28;20028;-67
2021/12/30 08:17:49;;;;;;;11.07;6.05;;;7.10;99.90;;;;;;5093434;28;20089;-66
2021/12/30 08:20:16;;;;;;;13.77;6.10;;;7.10;99.90;;;;;;5094216;28;20098;-67
2021/12/30 08:22:42;;;;;;;8.32;5.63;;;7.10;99.90;;;;;;5093593;28;20028;-66
2021/12/30 08:25:10;;;;;;;12.98;6.55;;;7.10;99.90;;;;;;5093841;28;20383;-67
2021/12/30 08:27:36;;;;;;;11.52;6.13;;;7.10;99.90;;;;;;5093182;28;20072;-67
2021/12/30 08:30:09;;;;;;;10.15;6.18;;;7.20;99.90;;;;;;5093645;28;20028;-66
2021/12/30 08:32:34;;;;;;;12.85;5.65;;;7.20;99.90;;;;;;5075457;28;20024;-67
2021/12/30 08:35:00;;;;;;;8.68;6.03;;;7.20;99.90;;;;;;5094305;28;20032;-67
2021/12/30 08:37:26;;;;;;;10.13;5.93;;;7.30;99.90;;;;;;5093526;28;20067;-67
2021/12/30 08:39:52;;;;;;;8.55;5.80;;;7.40;99.90;;;;;;5093304;28;20029;-68
2021/12/30 08:42:21;;;;;;;13.27;6.35;;;7.40;99.90;;;;;;5093357;28;20050;-65
2021/12/30 08:44:48;;;;;;;11.55;6.95;;;7.50;99.90;;;;;;5092976;28;20056;-67
2021/12/30 08:47:15;;;;;;;14.55;6.72;;;7.50;99.90;;;;;;5093565;28;20464;-66
2021/12/30 08:49:44;;;;;;;12.80;7.53;;;7.50;99.90;;;;;;5092852;28;20036;-66
2021/12/30 08:52:10;;;;;;;16.83;7.05;;;7.60;99.90;;;;;;5093665;28;20050;-66
2021/12/30 08:54:36;;;;;;;14.77;7.75;;;7.60;99.90;;;;;;5092882;28;20122;-67
2021/12/30 08:57:04;;;;;;;13.02;6.85;;;7.60;99.90;;;;;;5093129;28;20131;-66
2021/12/30 08:59:30;;;;;;;11.98;7.95;;;7.50;99.90;;;;;;5093489;28;20028;-66
2021/12/30 09:01:55;;;;;;;11.05;7.03;;;7.50;99.90;;;;;;5092598;28;20362;-66
2021/12/30 09:04:21;;;;;;;15.35;7.45;;;7.50;99.90;;;;;;5093358;28;20024;-67
2021/12/30 09:06:47;;;;;;;15.07;7.82;;;7.40;99.90;;;;;;5092450;28;20024;-66
2021/12/30 09:09:13;;;;;;;14.98;7.30;;;7.40;99.90;;;;;;5093218;28;20537;-67
2021/12/30 09:11:38;;;;;;;13.07;7.38;;;7.40;99.90;;;;;;5092023;28;20028;-65
2021/12/30 09:14:04;;;;;;;14.48;7.57;;;7.40;99.90;;;;;;5092787;28;20028;-67
2021/12/30 09:16:30;;;;;;;14.40;8.60;;;7.40;99.90;;;;;;5092543;28;20028;-67
2021/12/30 09:18:56;;;;;;;17.05;7.97;;;7.30;99.90;;;;;;5092377;28;20020;-68
2021/12/30 09:21:22;;;;;;;18.55;8.57;;;7.30;99.90;;;;;;5092714;28;20032;-68
2021/12/30 09:23:48;;;;;;;12.65;8.48;;;7.30;99.90;;;;;;5092240;28;20020;-69
2021/12/30 09:26:14;;;;;;;17.55;8.82;;;7.30;99.90;;;;;;5092934;28;20069;-67
2021/12/30 09:28:40;;;;;;;14.68;9.20;;;7.30;99.90;;;;;;5092210;28;20032;-67
2021/12/30 09:31:06;;;;;;;15.60;9.55;;;7.30;99.90;;;;;;5093274;28;20062;-67
2021/12/30 09:33:32;;;;;;;12.77;8.70;;;7.30;99.90;;;;;;5092806;28;20043;-67
2021/12/30 09:36:00;;;;;;;15.20;9.27;;;7.30;99.90;;;;;;5092189;28;20440;-68
2021/12/30 09:38:26;;;;;;;16.13;10.68;;;7.40;99.90;;;;;;5092870;28;20036;-66
2021/12/30 09:40:52;;;;;;;13.48;9.95;;;7.40;99.90;;;;;;5091867;28;20028;-67
2021/12/30 09:43:18;;;;;;;17.73;10.93;;;7.40;99.90;;;;;;5092256;28;20035;-67
2021/12/30 09:45:44;;;;;;;16.48;11.40;;;7.40;99.90;;;;;;5073474;28;20054;-67
2021/12/30 09:48:11;;;;;;;19.02;11.48;;;7.40;99.90;;;;;;5092451;28;20024;-67
2021/12/30 09:50:41;;;;;;;20.25;11.80;;;7.40;99.90;;;;;;5092100;28;20028;-66
2021/12/30 09:53:07;;;;;;;18.70;12.55;;;7.50;99.90;;;;;;5092147;28;20028;-67
2021/12/30 09:55:34;;;;;;;22.17;12.52;;;7.50;99.90;;;;;;5092112;28;20445;-67
2021/12/30 09:58:00;;;;;;;19.23;12.07;;;7.50;99.90;;;;;;5091555;28;20042;-67
2021/12/30 10:00:26;;;;;;;24.52;12.38;;;7.50;99.90;;;;;;5092225;28;20043;-67
2021/12/30 10:02:53;;;;;;;21.30;11.25;;;7.60;99.90;;;;;;5091342;28;20035;-67
2021/12/30 10:05:23;;;;;;;18.70;10.80;;;7.70;99.90;;;;;;5092296;28;20040;-66
2021/12/30 10:07:49;;;;;;;22.30;10.65;;;7.70;99.90;;;;;;5091657;28;20028;-67
2021/12/30 10:10:33;;;;;;;17.38;12.13;;;7.70;99.90;;;;;;5092251;28;20051;-67
2021/12/30 10:13:13;;;;;;;17.92;11.15;;;7.80;99.90;;;;;;5091523;28;20020;-68
2021/12/30 10:15:49;;;;;;;16.00;11.15;;;7.80;99.90;;;;;;5073348;28;20376;-67
2021/12/30 10:18:15;;;;;;;18.67;11.70;;;7.80;99.90;;;;;;5092096;28;20024;-67
2021/12/30 10:20:42;;;;;;;18.88;11.85;;;7.80;99.90;;;;;;5091436;28;20028;-67
2021/12/30 10:23:11;;;;;;;17.15;12.85;;;7.90;99.90;;;;;;5092121;28;20345;-66
2021/12/30 10:25:41;;;;;;;17.92;12.40;;;7.90;99.90;;;;;;5091695;28;20035;-67
2021/12/30 10:28:24;;;;;;;16.93;12.57;;;8.00;99.90;;;;;;5091083;28;20047;-69
2021/12/30 10:30:52;;;;;;;19.08;11.63;;;8.10;99.90;;;;;;5073506;28;20378;-67
2021/12/30 10:33:24;;;;;;;18.92;12.50;;;8.20;99.90;;;;;;5091940;28;20031;-68
2021/12/30 10:35:50;;;;;;;16.13;11.90;;;8.40;99.90;;;;;;5091238;28;20016;-67
2021/12/30 10:38:16;;;;;;;14.63;10.77;;;8.50;99.90;;;;;;5091865;28;20389;-67
2021/12/30 10:40:48;;;;;;;17.90;10.68;;;8.70;99.90;;;;;;5090863;28;20107;-67
2021/12/30 10:43:19;;;;;;;18.95;11.82;;;8.70;99.90;;;;;;5091803;28;20028;-68
2021/12/30 10:46:05;;;;;;;;;;;8.80;99.90;;;;;;5091640;28;20099;-68
2021/12/30 10:48:31;;;;;;;17.20;11.60;;;8.90;99.90;;;;;;5080368;28;19904;-67
2021/12/30 10:51:15;;;;;;;18.63;11.65;;;9.00;99.90;;;;;;5091137;28;20377;-68
2021/12/30 10:53:42;;;;;;;20.05;12.77;;;9.10;99.90;;;;;;5090811;28;20472;-66
2021/12/30 10:56:32;;;;;;;15.95;12.02;;;9.10;99.90;;;;;;5091776;28;20107;-67
2021/12/30 10:59:12;;;;;;;15.40;12.45;;;9.20;99.90;;;;;;5090831;28;20036;-68
2021/12/30 11:01:41;;;;;;;19.17;14.32;;;9.40;99.90;;;;;;5091664;28;20170;-67
2021/12/30 11:04:07;;;;;;;16.52;11.80;;;9.50;99.90;;;;;;5091161;28;20469;-68
2021/12/30 11:06:33;;;;;;;16.10;12.23;;;9.60;99.90;;;;;;5073416;28;20487;-68
2021/12/30 11:09:09;;;;;;;17.98;13.40;;;9.70;99.90;;;;;;5090917;28;20020;-67
2021/12/30 11:11:39;;;;;;;21.58;13.43;;;9.80;99.90;;;;;;5091641;28;20107;-67
2021/12/30 11:14:16;;;;;;;22.45;13.68;;;9.90;99.90;;;;;;5090577;28;20413;-67
2021/12/30 11:17:00;;;;;;;18.67;13.68;;;10.00;99.90;;;;;;5091051;28;20028;-67
2021/12/30 11:19:29;;;;;;;17.92;13.40;;;10.10;99.90;;;;;;5091457;28;20043;-67
2021/12/30 11:21:57;;;;;;;15.95;12.40;;;10.20;99.90;;;;;;5091186;28;20043;-67
2021/12/30 11:24:24;;;;;;;22.85;12.80;;;10.30;99.90;;;;;;5091504;28;20441;-67
2021/12/30 11:26:50;;;;;;;14.90;12.05;;;10.40;99.90;;;;;;5090837;28;20058;-67
2021/12/30 11:29:17;;;;;;;18.73;12.80;;;10.50;99.90;;;;;;5091404;28;20052;-68
2021/12/30 11:31:43;;;;;;;14.98;11.32;;;10.70;99.90;;;;;;5091103;28;20384;-68
2021/12/30 11:34:08;;;;;;;12.90;10.45;;;10.80;99.90;;;;;;5091446;28;20095;-68
2021/12/30 11:36:34;;;;;;;13.70;10.60;;;11.00;99.90;;;;;;5091751;28;20059;-68
2021/12/30 11:39:12;;;;;;;14.60;10.50;;;11.10;99.90;;;;;;5072972;28;20032;-68
2021/12/30 11:41:39;;;;;;;12.55;10.10;;;11.30;99.90;;;;;;5095152;28;20068;-66
2021/12/30 11:44:05;;;;;;;13.27;10.60;;;11.40;99.90;;;;;;5094263;28;20519;-67
2021/12/30 11:46:41;;;;;;;12.95;10.07;;;11.60;99.90;;;;;;5094576;28;20059;-67
2021/12/30 11:49:11;;;;;;;15.95;9.88;;;11.70;99.90;;;;;;5075860;28;20110;-67
2021/12/30 11:51:55;;;;;;;15.73;10.68;;;11.90;99.90;;;;;;5094858;28;20027;-66
2021/12/30 11:54:38;;;;;;;14.40;11.05;;;11.90;99.90;;;;;;5094729;28;20442;-67
2021/12/30 11:57:25;;;;;;;15.60;12.40;;;12.00;99.90;;;;;;5094124;28;20527;-66
2021/12/30 11:59:55;;;;;;;15.93;12.05;;;12.00;99.90;;;;;;5094027;28;20371;-67
2021/12/30 12:02:37;;;;;;;15.27;12.30;;;12.10;99.90;;;;;;5094720;28;20028;-67
2021/12/30 12:05:37;;;;;;;17.88;12.25;;;12.00;99.90;;;;;;5093816;28;20028;-66
2021/12/30 12:08:05;;;;;;;13.77;11.82;;;12.00;99.90;;;;;;5094150;28;20086;-68
2021/12/30 12:10:31;;;;;;;15.07;12.23;;;12.00;99.90;;;;;;5094582;28;20039;-68
2021/12/30 12:12:57;;;;;;;15.23;12.75;;;12.10;99.90;;;;;;5094023;28;20117;-67
2021/12/30 12:15:23;;;;;;;14.80;12.60;;;12.10;99.90;;;;;;5094500;28;20034;-68
2021/12/30 12:17:48;;;;;;;15.93;13.05;;;12.20;99.90;;;;;;5094014;28;20402;-69
2021/12/30 12:20:14;;;;;;;14.63;12.63;;;12.30;99.90;;;;;;5094378;28;20461;-67
2021/12/30 12:22:40;;;;;;;15.27;12.23;;;12.40;99.90;;;;;;5094459;28;20082;-67
2021/12/30 12:25:12;;;;;;;16.45;12.85;;;12.50;99.90;;;;;;5093764;28;20400;-67
2021/12/30 12:27:47;;;;;;;16.63;12.82;;;12.60;99.90;;;;;;5094103;28;20043;-67
2021/12/30 12:30:21;;;;;;;16.95;13.15;;;12.60;99.90;;;;;;5094094;28;20464;-67
2021/12/30 12:32:47;;;;;;;16.33;13.90;;;12.60;99.90;;;;;;5093980;28;20054;-67
2021/12/30 12:35:19;;;;;;;17.13;13.73;;;12.60;99.90;;;;;;5093892;28;20032;-67
2021/12/30 12:37:47;;;;;;;19.00;13.77;;;12.60;99.90;;;;;;5093552;28;20032;-67
2021/12/30 12:40:16;;;;;;;16.42;13.10;;;12.60;99.90;;;;;;5093896;28;20032;-68
2021/12/30 12:42:53;;;;;;;18.08;13.23;;;12.50;99.90;;;;;;5093833;28;20027;-67
2021/12/30 12:45:22;;;;;;;15.63;12.80;;;12.50;99.90;;;;;;5093799;28;20028;-67
2021/12/30 12:48:23;;;;;;;15.65;12.90;;;12.50;99.90;;;;;;5093685;28;20039;-67
2021/12/30 12:50:59;;;;;;;17.43;12.83;;;12.40;99.90;;;;;;5092402;28;20028;-67